Apache Acres, Indiana
Current Conditions -  °F | °C
As of 6:53 AM on Thursday 27 Nov 2014 (Local Time) from KHUF Reporting Station
Clear Clear  
Wind Chill: -4°   Ceiling: Unl
Heat Index: -4°   Visibility: 9mi
Dew Point: -7°   Wind: 3mph
Humidity: 78%   Direction: 310°NW
Pressure: 30.29"   Gusts: NA
Location:  39.543°N, 87.3153°W
Report Text: KHUF 271153Z 31003KT 9SM CLR M04/M07 A3029 RMK AO2 SLP263 T10391072 11017 21039 51025
Loading
Personal Weather Stations






























Interactive Weather Map New forecast layout! Learn more

10-Day Weather Forecast

Advertisements
Track Severe Weather on mobile